sensor_id;sensor_type;location;lat;lon;timestamp;P1;durP1;ratioP1;P2;durP2;ratioP2
59474;SDS011;45288;51.136;16.928;2023-09-19T00:00:46;106.18;;;98.32;;
59474;SDS011;45288;51.136;16.928;2023-09-19T00:03:12;144.55;;;134.18;;
59474;SDS011;45288;51.136;16.928;2023-09-19T00:05:38;73.73;;;67.67;;
59474;SDS011;45288;51.136;16.928;2023-09-19T00:08:04;115.43;;;107.05;;
59474;SDS011;45288;51.136;16.928;2023-09-19T00:10:30;120.80;;;112.10;;
59474;SDS011;45288;51.136;16.928;2023-09-19T00:13:02;88.25;;;81.35;;
59474;SDS011;45288;51.136;16.928;2023-09-19T00:15:39;110.22;;;102.03;;
59474;SDS011;45288;51.136;16.928;2023-09-19T00:18:06;96.93;;;90.18;;
59474;SDS011;45288;51.136;16.928;2023-09-19T00:20:32;108.30;;;100.30;;
59474;SDS011;45288;51.136;16.928;2023-09-19T00:23:00;44.65;;;40.42;;
59474;SDS011;45288;51.136;16.928;2023-09-19T00:25:28;45.23;;;40.97;;
59474;SDS011;45288;51.136;16.928;2023-09-19T00:27:54;46.40;;;42.13;;
59474;SDS011;45288;51.136;16.928;2023-09-19T00:30:20;48.35;;;44.00;;
59474;SDS011;45288;51.136;16.928;2023-09-19T00:32:47;26.10;;;17.95;;
59474;SDS011;45288;51.136;16.928;2023-09-19T00:35:13;18.65;;;8.27;;
59474;SDS011;45288;51.136;16.928;2023-09-19T00:37:42;22.45;;;7.65;;
59474;SDS011;45288;51.136;16.928;2023-09-19T00:40:08;22.40;;;8.10;;
59474;SDS011;45288;51.136;16.928;2023-09-19T00:42:41;28.58;;;8.90;;
59474;SDS011;45288;51.136;16.928;2023-09-19T00:45:10;22.95;;;10.48;;
59474;SDS011;45288;51.136;16.928;2023-09-19T00:47:45;31.52;;;13.52;;
59474;SDS011;45288;51.136;16.928;2023-09-19T00:50:12;27.23;;;9.65;;
59474;SDS011;45288;51.136;16.928;2023-09-19T00:52:40;27.57;;;11.93;;
59474;SDS011;45288;51.136;16.928;2023-09-19T00:55:08;25.35;;;14.70;;
59474;SDS011;45288;51.136;16.928;2023-09-19T00:57:35;28.07;;;20.33;;
59474;SDS011;45288;51.136;16.928;2023-09-19T01:00:02;107.07;;;99.22;;
59474;SDS011;45288;51.136;16.928;2023-09-19T01:02:33;94.57;;;87.53;;
59474;SDS011;45288;51.136;16.928;2023-09-19T01:04:59;156.43;;;144.90;;
59474;SDS011;45288;51.136;16.928;2023-09-19T01:07:28;101.25;;;93.82;;
59474;SDS011;45288;51.136;16.928;2023-09-19T01:10:02;122.75;;;113.80;;
59474;SDS011;45288;51.136;16.928;2023-09-19T01:12:52;49.28;;;44.88;;
59474;SDS011;45288;51.136;16.928;2023-09-19T01:20:46;336.02;;;309.88;;
59474;SDS011;45288;51.136;16.928;2023-09-19T01:30:32;108.28;;;100.53;;
59474;SDS011;45288;51.136;16.928;2023-09-19T01:32:58;119.77;;;111.37;;
59474;SDS011;45288;51.136;16.928;2023-09-19T01:35:25;175.02;;;162.40;;
59474;SDS011;45288;51.136;16.928;2023-09-19T01:37:51;170.98;;;158.32;;
59474;SDS011;45288;51.136;16.928;2023-09-19T01:40:19;123.85;;;115.38;;
59474;SDS011;45288;51.136;16.928;2023-09-19T01:42:59;144.10;;;133.63;;
59474;SDS011;45288;51.136;16.928;2023-09-19T01:45:31;154.05;;;143.18;;
59474;SDS011;45288;51.136;16.928;2023-09-19T01:48:04;109.57;;;101.28;;
59474;SDS011;45288;51.136;16.928;2023-09-19T01:50:43;127.77;;;118.80;;
59474;SDS011;45288;51.136;16.928;2023-09-19T01:53:13;151.45;;;140.70;;
59474;SDS011;45288;51.136;16.928;2023-09-19T01:55:46;46.72;;;42.08;;
59474;SDS011;45288;51.136;16.928;2023-09-19T02:00:48;88.90;;;81.95;;
59474;SDS011;45288;51.136;16.928;2023-09-19T02:03:17;90.53;;;83.90;;
59474;SDS011;45288;51.136;16.928;2023-09-19T02:05:48;101.00;;;93.32;;
59474;SDS011;45288;51.136;16.928;2023-09-19T02:08:15;129.18;;;120.10;;
59474;SDS011;45288;51.136;16.928;2023-09-19T02:10:43;153.20;;;141.93;;
59474;SDS011;45288;51.136;16.928;2023-09-19T02:13:17;137.32;;;127.65;;
59474;SDS011;45288;51.136;16.928;2023-09-19T02:15:43;128.50;;;119.05;;
59474;SDS011;45288;51.136;16.928;2023-09-19T02:18:15;98.72;;;91.72;;
59474;SDS011;45288;51.136;16.928;2023-09-19T02:20:41;77.65;;;71.40;;
59474;SDS011;45288;51.136;16.928;2023-09-19T02:23:08;88.75;;;82.13;;
59474;SDS011;45288;51.136;16.928;2023-09-19T02:25:34;98.93;;;91.78;;
59474;SDS011;45288;51.136;16.928;2023-09-19T02:28:01;136.97;;;127.43;;
59474;SDS011;45288;51.136;16.928;2023-09-19T02:30:28;154.18;;;142.98;;
59474;SDS011;45288;51.136;16.928;2023-09-19T02:32:55;88.70;;;82.03;;
59474;SDS011;45288;51.136;16.928;2023-09-19T02:35:21;89.95;;;83.28;;
59474;SDS011;45288;51.136;16.928;2023-09-19T02:37:47;113.03;;;104.77;;
59474;SDS011;45288;51.136;16.928;2023-09-19T02:40:12;20.60;;;13.68;;
59474;SDS011;45288;51.136;16.928;2023-09-19T02:42:45;25.80;;;11.50;;
59474;SDS011;45288;51.136;16.928;2023-09-19T02:45:12;20.52;;;8.68;;
59474;SDS011;45288;51.136;16.928;2023-09-19T02:47:39;24.30;;;14.13;;
59474;SDS011;45288;51.136;16.928;2023-09-19T02:50:05;28.30;;;18.75;;
59474;SDS011;45288;51.136;16.928;2023-09-19T02:52:31;53.65;;;48.92;;
59474;SDS011;45288;51.136;16.928;2023-09-19T02:54:58;94.82;;;87.85;;
59474;SDS011;45288;51.136;16.928;2023-09-19T02:57:25;93.33;;;86.70;;
59474;SDS011;45288;51.136;16.928;2023-09-19T02:59:51;109.68;;;101.43;;
59474;SDS011;45288;51.136;16.928;2023-09-19T03:02:18;95.93;;;88.80;;
59474;SDS011;45288;51.136;16.928;2023-09-19T03:04:44;25.65;;;12.10;;
59474;SDS011;45288;51.136;16.928;2023-09-19T03:07:11;23.50;;;12.27;;
59474;SDS011;45288;51.136;16.928;2023-09-19T03:09:37;23.98;;;11.82;;
59474;SDS011;45288;51.136;16.928;2023-09-19T03:12:02;270.63;;;250.03;;
59474;SDS011;45288;51.136;16.928;2023-09-19T03:14:30;257.35;;;237.10;;
59474;SDS011;45288;51.136;16.928;2023-09-19T03:17:01;600.10;;;552.53;;
59474;SDS011;45288;51.136;16.928;2023-09-19T03:19:30;191.23;;;177.15;;
59474;SDS011;45288;51.136;16.928;2023-09-19T03:21:57;243.00;;;224.82;;
59474;SDS011;45288;51.136;16.928;2023-09-19T03:24:23;273.55;;;252.77;;
59474;SDS011;45288;51.136;16.928;2023-09-19T03:26:49;306.95;;;283.27;;
59474;SDS011;45288;51.136;16.928;2023-09-19T03:29:16;349.35;;;322.23;;
59474;SDS011;45288;51.136;16.928;2023-09-19T03:31:43;211.85;;;195.38;;
59474;SDS011;45288;51.136;16.928;2023-09-19T03:34:09;192.93;;;178.45;;
59474;SDS011;45288;51.136;16.928;2023-09-19T03:36:36;210.70;;;194.48;;
59474;SDS011;45288;51.136;16.928;2023-09-19T03:39:02;248.10;;;228.87;;
59474;SDS011;45288;51.136;16.928;2023-09-19T03:41:31;264.85;;;244.60;;
59474;SDS011;45288;51.136;16.928;2023-09-19T03:43:57;267.08;;;247.13;;
59474;SDS011;45288;51.136;16.928;2023-09-19T03:46:23;299.67;;;276.50;;
59474;SDS011;45288;51.136;16.928;2023-09-19T03:48:48;213.02;;;197.07;;
59474;SDS011;45288;51.136;16.928;2023-09-19T03:51:16;432.88;;;397.75;;
59474;SDS011;45288;51.136;16.928;2023-09-19T03:53:42;436.60;;;401.50;;
59474;SDS011;45288;51.136;16.928;2023-09-19T03:56:09;543.85;;;499.02;;
59474;SDS011;45288;51.136;16.928;2023-09-19T03:58:35;448.25;;;411.83;;
59474;SDS011;45288;51.136;16.928;2023-09-19T04:01:05;443.60;;;407.70;;
59474;SDS011;45288;51.136;16.928;2023-09-19T04:03:34;501.25;;;459.80;;
59474;SDS011;45288;51.136;16.928;2023-09-19T04:06:14;478.92;;;439.48;;
59474;SDS011;45288;51.136;16.928;2023-09-19T04:08:40;424.13;;;390.17;;
59474;SDS011;45288;51.136;16.928;2023-09-19T04:11:06;442.07;;;406.27;;
59474;SDS011;45288;51.136;16.928;2023-09-19T04:13:31;414.90;;;381.70;;
59474;SDS011;45288;51.136;16.928;2023-09-19T04:15:57;392.70;;;361.70;;
59474;SDS011;45288;51.136;16.928;2023-09-19T04:18:23;454.00;;;417.50;;
59474;SDS011;45288;51.136;16.928;2023-09-19T04:20:49;434.75;;;399.45;;
59474;SDS011;45288;51.136;16.928;2023-09-19T04:23:16;398.98;;;367.63;;
59474;SDS011;45288;51.136;16.928;2023-09-19T04:25:42;439.30;;;404.05;;
59474;SDS011;45288;51.136;16.928;2023-09-19T04:28:08;454.17;;;417.15;;
59474;SDS011;45288;51.136;16.928;2023-09-19T04:30:35;417.50;;;383.75;;
59474;SDS011;45288;51.136;16.928;2023-09-19T04:33:01;377.02;;;347.40;;
59474;SDS011;45288;51.136;16.928;2023-09-19T04:35:28;396.52;;;365.13;;
59474;SDS011;45288;51.136;16.928;2023-09-19T04:37:57;381.13;;;351.20;;
59474;SDS011;45288;51.136;16.928;2023-09-19T04:40:23;406.17;;;374.15;;
59474;SDS011;45288;51.136;16.928;2023-09-19T04:42:58;407.88;;;375.40;;
59474;SDS011;45288;51.136;16.928;2023-09-19T04:45:23;416.25;;;383.10;;
59474;SDS011;45288;51.136;16.928;2023-09-19T04:47:49;406.83;;;374.33;;
59474;SDS011;45288;51.136;16.928;2023-09-19T04:50:15;432.83;;;397.67;;
59474;SDS011;45288;51.136;16.928;2023-09-19T04:52:42;410.65;;;377.55;;
59474;SDS011;45288;51.136;16.928;2023-09-19T04:55:13;427.00;;;392.60;;
59474;SDS011;45288;51.136;16.928;2023-09-19T04:57:46;391.77;;;360.25;;
59474;SDS011;45288;51.136;16.928;2023-09-19T05:00:16;345.08;;;317.65;;
59474;SDS011;45288;51.136;16.928;2023-09-19T05:02:45;422.10;;;388.27;;
59474;SDS011;45288;51.136;16.928;2023-09-19T05:05:11;419.20;;;385.92;;
59474;SDS011;45288;51.136;16.928;2023-09-19T05:07:39;484.92;;;445.38;;
59474;SDS011;45288;51.136;16.928;2023-09-19T05:10:04;435.48;;;400.45;;
59474;SDS011;45288;51.136;16.928;2023-09-19T05:12:33;426.80;;;392.70;;
59474;SDS011;45288;51.136;16.928;2023-09-19T05:15:00;415.35;;;382.23;;
59474;SDS011;45288;51.136;16.928;2023-09-19T05:17:27;380.10;;;350.75;;
59474;SDS011;45288;51.136;16.928;2023-09-19T05:19:52;349.67;;;321.67;;
59474;SDS011;45288;51.136;16.928;2023-09-19T05:22:18;332.88;;;307.15;;
59474;SDS011;45288;51.136;16.928;2023-09-19T05:24:44;412.60;;;379.87;;
59474;SDS011;45288;51.136;16.928;2023-09-19T05:27:16;407.88;;;375.17;;
59474;SDS011;45288;51.136;16.928;2023-09-19T05:29:45;643.17;;;590.60;;
59474;SDS011;45288;51.136;16.928;2023-09-19T05:32:11;465.17;;;427.20;;
59474;SDS011;45288;51.136;16.928;2023-09-19T05:34:37;494.58;;;454.63;;
59474;SDS011;45288;51.136;16.928;2023-09-19T05:37:04;420.63;;;387.40;;
59474;SDS011;45288;51.136;16.928;2023-09-19T05:39:30;375.67;;;346.83;;
59474;SDS011;45288;51.136;16.928;2023-09-19T05:41:56;426.77;;;392.73;;
59474;SDS011;45288;51.136;16.928;2023-09-19T05:44:23;438.15;;;403.23;;
59474;SDS011;45288;51.136;16.928;2023-09-19T05:46:48;506.60;;;465.03;;
59474;SDS011;45288;51.136;16.928;2023-09-19T05:49:15;437.07;;;401.53;;
59474;SDS011;45288;51.136;16.928;2023-09-19T05:51:41;446.63;;;410.73;;
59474;SDS011;45288;51.136;16.928;2023-09-19T05:54:06;448.27;;;412.30;;
59474;SDS011;45288;51.136;16.928;2023-09-19T05:56:32;458.50;;;421.70;;
59474;SDS011;45288;51.136;16.928;2023-09-19T05:58:58;393.75;;;362.40;;
59474;SDS011;45288;51.136;16.928;2023-09-19T06:01:25;448.00;;;411.80;;
59474;SDS011;45288;51.136;16.928;2023-09-19T06:03:51;457.02;;;419.65;;
59474;SDS011;45288;51.136;16.928;2023-09-19T06:06:18;454.85;;;418.10;;
59474;SDS011;45288;51.136;16.928;2023-09-19T06:08:44;475.98;;;437.52;;
59474;SDS011;45288;51.136;16.928;2023-09-19T06:11:10;451.00;;;414.23;;
59474;SDS011;45288;51.136;16.928;2023-09-19T06:13:37;463.02;;;425.52;;
59474;SDS011;45288;51.136;16.928;2023-09-19T06:16:04;455.17;;;418.23;;
59474;SDS011;45288;51.136;16.928;2023-09-19T06:18:33;455.35;;;418.58;;
59474;SDS011;45288;51.136;16.928;2023-09-19T06:20:59;453.10;;;415.85;;
59474;SDS011;45288;51.136;16.928;2023-09-19T06:23:25;449.38;;;413.70;;
59474;SDS011;45288;51.136;16.928;2023-09-19T06:25:52;413.85;;;380.95;;
59474;SDS011;45288;51.136;16.928;2023-09-19T06:28:18;441.63;;;405.63;;
59474;SDS011;45288;51.136;16.928;2023-09-19T06:30:49;437.37;;;402.00;;
59474;SDS011;45288;51.136;16.928;2023-09-19T06:33:15;389.98;;;358.88;;
59474;SDS011;45288;51.136;16.928;2023-09-19T06:35:41;407.67;;;375.42;;
59474;SDS011;45288;51.136;16.928;2023-09-19T06:38:07;404.67;;;372.55;;
59474;SDS011;45288;51.136;16.928;2023-09-19T06:40:36;405.35;;;373.45;;
59474;SDS011;45288;51.136;16.928;2023-09-19T06:43:01;403.93;;;372.20;;
59474;SDS011;45288;51.136;16.928;2023-09-19T06:45:27;429.60;;;393.98;;
59474;SDS011;45288;51.136;16.928;2023-09-19T06:47:53;482.90;;;442.63;;
59474;SDS011;45288;51.136;16.928;2023-09-19T06:50:20;561.28;;;515.30;;
59474;SDS011;45288;51.136;16.928;2023-09-19T06:52:48;582.78;;;534.88;;
59474;SDS011;45288;51.136;16.928;2023-09-19T06:55:15;579.67;;;532.07;;
59474;SDS011;45288;51.136;16.928;2023-09-19T06:57:44;611.60;;;561.83;;
59474;SDS011;45288;51.136;16.928;2023-09-19T07:00:11;599.53;;;550.97;;
59474;SDS011;45288;51.136;16.928;2023-09-19T07:03:00;620.03;;;569.50;;
59474;SDS011;45288;51.136;16.928;2023-09-19T07:05:27;733.63;;;674.70;;
59474;SDS011;45288;51.136;16.928;2023-09-19T07:07:53;736.70;;;677.65;;
59474;SDS011;45288;51.136;16.928;2023-09-19T07:10:24;612.22;;;562.70;;
59474;SDS011;45288;51.136;16.928;2023-09-19T07:12:55;853.63;;;782.97;;
59474;SDS011;45288;51.136;16.928;2023-09-19T07:15:20;649.43;;;596.50;;
59474;SDS011;45288;51.136;16.928;2023-09-19T07:17:49;590.50;;;542.47;;
59474;SDS011;45288;51.136;16.928;2023-09-19T07:20:15;559.42;;;513.53;;
59474;SDS011;45288;51.136;16.928;2023-09-19T07:22:41;608.97;;;559.47;;
59474;SDS011;45288;51.136;16.928;2023-09-19T07:25:07;531.45;;;488.45;;
59474;SDS011;45288;51.136;16.928;2023-09-19T07:27:33;554.33;;;509.13;;
59474;SDS011;45288;51.136;16.928;2023-09-19T07:29:59;573.92;;;527.08;;
59474;SDS011;45288;51.136;16.928;2023-09-19T07:32:24;586.33;;;538.53;;
59474;SDS011;45288;51.136;16.928;2023-09-19T07:34:50;596.38;;;547.38;;
59474;SDS011;45288;51.136;16.928;2023-09-19T07:37:16;553.63;;;508.05;;
59474;SDS011;45288;51.136;16.928;2023-09-19T07:39:41;569.78;;;523.45;;
59474;SDS011;45288;51.136;16.928;2023-09-19T07:42:08;563.45;;;516.65;;
59474;SDS011;45288;51.136;16.928;2023-09-19T07:44:37;559.67;;;514.17;;
59474;SDS011;45288;51.136;16.928;2023-09-19T07:47:02;554.38;;;508.38;;
59474;SDS011;45288;51.136;16.928;2023-09-19T07:49:29;562.25;;;516.42;;
59474;SDS011;45288;51.136;16.928;2023-09-19T07:51:54;542.20;;;497.60;;
59474;SDS011;45288;51.136;16.928;2023-09-19T07:54:22;496.35;;;455.65;;
59474;SDS011;45288;51.136;16.928;2023-09-19T07:56:48;531.17;;;487.75;;
59474;SDS011;45288;51.136;16.928;2023-09-19T07:59:13;458.87;;;421.77;;
59474;SDS011;45288;51.136;16.928;2023-09-19T08:01:39;463.90;;;426.20;;
59474;SDS011;45288;51.136;16.928;2023-09-19T08:04:09;466.70;;;428.65;;
59474;SDS011;45288;51.136;16.928;2023-09-19T08:06:35;474.48;;;435.92;;
59474;SDS011;45288;51.136;16.928;2023-09-19T08:09:00;461.15;;;423.50;;
59474;SDS011;45288;51.136;16.928;2023-09-19T08:11:32;457.73;;;420.38;;
59474;SDS011;45288;51.136;16.928;2023-09-19T08:13:58;497.88;;;457.92;;
59474;SDS011;45288;51.136;16.928;2023-09-19T08:16:24;466.05;;;428.42;;
59474;SDS011;45288;51.136;16.928;2023-09-19T08:18:50;483.63;;;444.33;;
59474;SDS011;45288;51.136;16.928;2023-09-19T08:21:21;496.23;;;455.60;;
59474;SDS011;45288;51.136;16.928;2023-09-19T08:23:47;491.67;;;451.87;;
59474;SDS011;45288;51.136;16.928;2023-09-19T08:26:13;513.90;;;471.60;;
59474;SDS011;45288;51.136;16.928;2023-09-19T08:28:39;443.73;;;406.57;;
59474;SDS011;45288;51.136;16.928;2023-09-19T08:31:07;541.75;;;496.95;;
59474;SDS011;45288;51.136;16.928;2023-09-19T08:33:34;541.53;;;497.02;;
59474;SDS011;45288;51.136;16.928;2023-09-19T08:36:04;621.53;;;570.00;;
59474;SDS011;45288;51.136;16.928;2023-09-19T08:38:33;542.08;;;497.42;;
59474;SDS011;45288;51.136;16.928;2023-09-19T08:41:00;526.20;;;482.97;;
59474;SDS011;45288;51.136;16.928;2023-09-19T08:43:26;492.83;;;452.55;;
59474;SDS011;45288;51.136;16.928;2023-09-19T08:45:57;479.77;;;440.67;;
59474;SDS011;45288;51.136;16.928;2023-09-19T08:48:25;490.38;;;450.67;;
59474;SDS011;45288;51.136;16.928;2023-09-19T08:50:52;521.07;;;478.10;;
59474;SDS011;45288;51.136;16.928;2023-09-19T08:53:25;484.63;;;444.52;;
59474;SDS011;45288;51.136;16.928;2023-09-19T08:55:53;515.20;;;473.20;;
59474;SDS011;45288;51.136;16.928;2023-09-19T08:58:21;540.05;;;495.88;;
59474;SDS011;45288;51.136;16.928;2023-09-19T09:00:51;704.60;;;646.73;;
59474;SDS011;45288;51.136;16.928;2023-09-19T09:03:17;794.42;;;730.58;;
59474;SDS011;45288;51.136;16.928;2023-09-19T09:05:45;506.00;;;464.70;;
59474;SDS011;45288;51.136;16.928;2023-09-19T09:08:12;586.60;;;538.87;;
59474;SDS011;45288;51.136;16.928;2023-09-19T09:10:39;766.80;;;704.97;;
59474;SDS011;45288;51.136;16.928;2023-09-19T09:13:06;890.08;;;819.88;;
59474;SDS011;45288;51.136;16.928;2023-09-19T09:15:34;961.42;;;886.22;;
59474;SDS011;45288;51.136;16.928;2023-09-19T09:18:00;866.65;;;797.58;;
59474;SDS011;45288;51.136;16.928;2023-09-19T09:20:28;479.88;;;441.08;;
59474;SDS011;45288;51.136;16.928;2023-09-19T09:22:54;404.20;;;372.23;;
59474;SDS011;45288;51.136;16.928;2023-09-19T09:25:20;459.87;;;422.80;;
59474;SDS011;45288;51.136;16.928;2023-09-19T09:28:02;358.67;;;329.90;;
59474;SDS011;45288;51.136;16.928;2023-09-19T09:30:37;449.40;;;413.50;;
59474;SDS011;45288;51.136;16.928;2023-09-19T09:33:10;463.58;;;425.83;;
59474;SDS011;45288;51.136;16.928;2023-09-19T09:35:49;484.80;;;445.58;;
59474;SDS011;45288;51.136;16.928;2023-09-19T09:38:20;469.77;;;431.65;;
59474;SDS011;45288;51.136;16.928;2023-09-19T09:40:50;489.40;;;449.88;;
59474;SDS011;45288;51.136;16.928;2023-09-19T09:43:25;462.90;;;424.90;;
59474;SDS011;45288;51.136;16.928;2023-09-19T09:46:04;527.78;;;483.83;;
59474;SDS011;45288;51.136;16.928;2023-09-19T09:48:36;482.00;;;442.53;;
59474;SDS011;45288;51.136;16.928;2023-09-19T09:51:04;476.83;;;437.57;;
59474;SDS011;45288;51.136;16.928;2023-09-19T09:53:33;463.77;;;426.10;;
59474;SDS011;45288;51.136;16.928;2023-09-19T09:56:05;583.00;;;535.07;;
59474;SDS011;45288;51.136;16.928;2023-09-19T09:58:38;405.88;;;373.38;;
59474;SDS011;45288;51.136;16.928;2023-09-19T10:01:14;381.17;;;351.50;;
59474;SDS011;45288;51.136;16.928;2023-09-19T10:03:43;386.35;;;355.55;;
59474;SDS011;45288;51.136;16.928;2023-09-19T10:06:13;370.65;;;341.83;;
59474;SDS011;45288;51.136;16.928;2023-09-19T10:11:43;364.08;;;335.40;;
59474;SDS011;45288;51.136;16.928;2023-09-19T10:14:19;362.90;;;334.30;;
59474;SDS011;45288;51.136;16.928;2023-09-19T10:16:49;368.92;;;339.83;;
59474;SDS011;45288;51.136;16.928;2023-09-19T10:19:23;375.70;;;345.90;;
59474;SDS011;45288;51.136;16.928;2023-09-19T10:21:50;382.45;;;352.10;;
59474;SDS011;45288;51.136;16.928;2023-09-19T10:24:16;400.38;;;368.20;;
59474;SDS011;45288;51.136;16.928;2023-09-19T10:26:43;398.92;;;366.60;;
59474;SDS011;45288;51.136;16.928;2023-09-19T10:29:12;374.60;;;344.65;;
59474;SDS011;45288;51.136;16.928;2023-09-19T10:31:39;372.00;;;342.35;;
59474;SDS011;45288;51.136;16.928;2023-09-19T10:34:07;331.52;;;304.98;;
59474;SDS011;45288;51.136;16.928;2023-09-19T10:36:35;370.05;;;340.40;;
59474;SDS011;45288;51.136;16.928;2023-09-19T10:39:02;434.55;;;398.80;;
59474;SDS011;45288;51.136;16.928;2023-09-19T10:41:32;359.00;;;330.97;;
59474;SDS011;45288;51.136;16.928;2023-09-19T10:44:03;356.80;;;328.38;;
59474;SDS011;45288;51.136;16.928;2023-09-19T10:46:31;368.30;;;339.40;;
59474;SDS011;45288;51.136;16.928;2023-09-19T10:49:00;365.67;;;336.70;;
59474;SDS011;45288;51.136;16.928;2023-09-19T10:51:26;363.67;;;335.20;;
59474;SDS011;45288;51.136;16.928;2023-09-19T10:54:05;351.90;;;324.00;;
59474;SDS011;45288;51.136;16.928;2023-09-19T10:56:32;353.45;;;325.75;;
59474;SDS011;45288;51.136;16.928;2023-09-19T10:59:06;357.48;;;329.42;;
59474;SDS011;45288;51.136;16.928;2023-09-19T11:01:43;357.05;;;328.85;;
59474;SDS011;45288;51.136;16.928;2023-09-19T11:07:06;347.77;;;320.13;;
59474;SDS011;45288;51.136;16.928;2023-09-19T11:09:43;320.07;;;295.50;;
59474;SDS011;45288;51.136;16.928;2023-09-19T11:12:12;345.77;;;318.02;;
59474;SDS011;45288;51.136;16.928;2023-09-19T11:14:39;343.25;;;316.60;;
59474;SDS011;45288;51.136;16.928;2023-09-19T11:22:23;469.35;;;430.70;;
59474;SDS011;45288;51.136;16.928;2023-09-19T11:24:51;426.92;;;392.10;;
59474;SDS011;45288;51.136;16.928;2023-09-19T11:27:17;463.47;;;424.90;;
59474;SDS011;45288;51.136;16.928;2023-09-19T11:29:44;349.60;;;321.42;;
59474;SDS011;45288;51.136;16.928;2023-09-19T11:32:12;347.45;;;319.48;;
59474;SDS011;45288;51.136;16.928;2023-09-19T11:34:41;307.67;;;283.50;;
59474;SDS011;45288;51.136;16.928;2023-09-19T11:39:37;345.88;;;318.95;;
59474;SDS011;45288;51.136;16.928;2023-09-19T11:44:49;361.58;;;333.42;;
59474;SDS011;45288;51.136;16.928;2023-09-19T11:47:17;351.27;;;323.10;;
59474;SDS011;45288;51.136;16.928;2023-09-19T11:49:44;349.17;;;322.08;;
59474;SDS011;45288;51.136;16.928;2023-09-19T11:52:10;367.13;;;337.63;;
59474;SDS011;45288;51.136;16.928;2023-09-19T11:54:37;378.05;;;347.92;;
59474;SDS011;45288;51.136;16.928;2023-09-19T11:57:05;407.25;;;374.10;;
59474;SDS011;45288;51.136;16.928;2023-09-19T11:59:32;423.17;;;388.88;;
59474;SDS011;45288;51.136;16.928;2023-09-19T12:02:03;427.60;;;392.17;;
59474;SDS011;45288;51.136;16.928;2023-09-19T12:04:38;429.52;;;394.52;;
59474;SDS011;45288;51.136;16.928;2023-09-19T12:07:13;438.42;;;401.98;;
59474;SDS011;45288;51.136;16.928;2023-09-19T12:09:45;425.98;;;391.08;;
59474;SDS011;45288;51.136;16.928;2023-09-19T12:12:23;435.27;;;399.27;;
59474;SDS011;45288;51.136;16.928;2023-09-19T12:14:49;420.70;;;386.35;;
59474;SDS011;45288;51.136;16.928;2023-09-19T12:17:16;428.60;;;392.87;;
59474;SDS011;45288;51.136;16.928;2023-09-19T12:19:51;421.83;;;387.27;;
59474;SDS011;45288;51.136;16.928;2023-09-19T12:22:17;430.10;;;393.88;;
59474;SDS011;45288;51.136;16.928;2023-09-19T12:24:44;418.55;;;384.02;;
59474;SDS011;45288;51.136;16.928;2023-09-19T12:27:11;451.02;;;412.60;;
59474;SDS011;45288;51.136;16.928;2023-09-19T12:29:44;452.83;;;414.95;;
59474;SDS011;45288;51.136;16.928;2023-09-19T12:32:09;439.25;;;402.30;;
59474;SDS011;45288;51.136;16.928;2023-09-19T12:34:36;445.90;;;408.48;;
59474;SDS011;45288;51.136;16.928;2023-09-19T12:37:08;450.38;;;412.52;;
59474;SDS011;45288;51.136;16.928;2023-09-19T12:39:44;415.00;;;381.27;;
59474;SDS011;45288;51.136;16.928;2023-09-19T12:42:20;424.77;;;389.35;;
59474;SDS011;45288;51.136;16.928;2023-09-19T12:44:47;444.17;;;406.83;;
59474;SDS011;45288;51.136;16.928;2023-09-19T12:47:14;433.40;;;396.83;;
59474;SDS011;45288;51.136;16.928;2023-09-19T12:52:31;444.10;;;407.27;;
59474;SDS011;45288;51.136;16.928;2023-09-19T12:54:59;439.02;;;402.52;;
59474;SDS011;45288;51.136;16.928;2023-09-19T12:57:28;677.70;;;620.92;;
59474;SDS011;45288;51.136;16.928;2023-09-19T12:59:54;681.85;;;624.58;;
59474;SDS011;45288;51.136;16.928;2023-09-19T13:02:20;587.27;;;536.93;;
59474;SDS011;45288;51.136;16.928;2023-09-19T13:04:53;686.00;;;627.78;;
59474;SDS011;45288;51.136;16.928;2023-09-19T13:10:04;454.83;;;416.87;;
59474;SDS011;45288;51.136;16.928;2023-09-19T13:12:39;615.85;;;563.88;;
59474;SDS011;45288;51.136;16.928;2023-09-19T13:15:11;520.50;;;476.67;;
59474;SDS011;45288;51.136;16.928;2023-09-19T13:17:43;500.77;;;458.73;;
59474;SDS011;45288;51.136;16.928;2023-09-19T13:22:55;462.00;;;422.97;;
59474;SDS011;45288;51.136;16.928;2023-09-19T13:25:25;472.75;;;432.92;;
59474;SDS011;45288;51.136;16.928;2023-09-19T13:27:54;435.40;;;399.10;;
59474;SDS011;45288;51.136;16.928;2023-09-19T13:30:24;433.55;;;397.33;;
59474;SDS011;45288;51.136;16.928;2023-09-19T13:33:06;399.35;;;366.10;;
59474;SDS011;45288;51.136;16.928;2023-09-19T13:35:33;340.48;;;313.02;;
59474;SDS011;45288;51.136;16.928;2023-09-19T13:37:59;346.35;;;318.23;;
59474;SDS011;45288;51.136;16.928;2023-09-19T13:40:26;395.98;;;363.08;;
59474;SDS011;45288;51.136;16.928;2023-09-19T13:42:56;365.30;;;335.02;;
59474;SDS011;45288;51.136;16.928;2023-09-19T13:45:22;363.45;;;333.75;;
59474;SDS011;45288;51.136;16.928;2023-09-19T13:47:50;363.50;;;333.52;;
59474;SDS011;45288;51.136;16.928;2023-09-19T13:50:19;386.00;;;354.33;;
59474;SDS011;45288;51.136;16.928;2023-09-19T13:52:49;374.73;;;344.00;;
59474;SDS011;45288;51.136;16.928;2023-09-19T13:55:16;383.60;;;352.40;;
59474;SDS011;45288;51.136;16.928;2023-09-19T13:57:48;376.17;;;345.67;;
59474;SDS011;45288;51.136;16.928;2023-09-19T14:00:15;258.17;;;237.63;;
59474;SDS011;45288;51.136;16.928;2023-09-19T14:02:41;350.77;;;322.75;;
59474;SDS011;45288;51.136;16.928;2023-09-19T14:05:10;335.98;;;309.05;;
59474;SDS011;45288;51.136;16.928;2023-09-19T14:07:38;25.15;;;22.40;;
59474;SDS011;45288;51.136;16.928;2023-09-19T14:10:03;299.77;;;275.87;;
59474;SDS011;45288;51.136;16.928;2023-09-19T14:12:33;301.13;;;277.50;;
59474;SDS011;45288;51.136;16.928;2023-09-19T14:14:59;290.75;;;267.50;;
59474;SDS011;45288;51.136;16.928;2023-09-19T14:17:25;21.07;;;8.10;;
59474;SDS011;45288;51.136;16.928;2023-09-19T14:19:52;22.23;;;10.10;;
59474;SDS011;45288;51.136;16.928;2023-09-19T14:22:18;22.25;;;9.85;;
59474;SDS011;45288;51.136;16.928;2023-09-19T14:24:43;43.73;;;39.77;;
59474;SDS011;45288;51.136;16.928;2023-09-19T14:27:09;32.58;;;25.70;;
59474;SDS011;45288;51.136;16.928;2023-09-19T14:29:35;41.40;;;37.80;;
59474;SDS011;45288;51.136;16.928;2023-09-19T14:32:01;33.40;;;29.33;;
59474;SDS011;45288;51.136;16.928;2023-09-19T14:34:27;66.60;;;61.67;;